METAR Data
IDs: Format: Raw Decoded Include TAF

Data at: 1100 UTC 16 Feb 2019

PARS 161056Z AUTO 00000KT 10SM OVC005 M09/M10 A2989 RMK AO2 SLP127 T10891100 FZRANO $
PARS 160956Z AUTO 09003KT 10SM OVC005 M08/M09 A2987 RMK AO2 SNE12 SLP119 P0000 T10831094 FZRANO $
PARS 160856Z AUTO 00000KT 7SM -SN OVC007 M08/M09 A2985 RMK AO2 SLP111 P0000 60000 T10831094 53015 FZRANO $
PARS 160756Z AUTO 08004KT 7SM -SN OVC009 M08/M09 A2982 RMK AO2 SLP103 P0000 T10831094 410831133 FZRANO $
PARS 160748Z AUTO 00000KT 4SM -SN BR OVC011 M08/M09 A2982 RMK AO2 P0000 FZRANO $
PARS 160741Z AUTO 00000KT 2 1/2SM -SN BR OVC011 M08/M09 A2982 RMK AO2 P0000 FZRANO $
PARS 160722Z AUTO 09003KT 1 1/2SM -SN BR OVC013 M08/M09 A2981 RMK AO2 P0000 FZRANO $
PARS 160656Z AUTO 10003KT 1 1/2SM -SN BR OVC015 M08/M10 A2981 RMK AO2 SLP098 P0000 T10831100 FZRANO $
PARS 160624Z AUTO VRB03KT 1 3/4SM -SN BR BKN015 OVC021 M08/M10 A2981 RMK AO2 P0000 FZRANO $
PARS 160616Z AUTO 00000KT 2SM -SN BR BKN015 OVC021 M08/M10 A2981 RMK AO2 P0000 FZRANO $
PARS 160609Z AUTO 08005KT 1 3/4SM -SN BR BKN015 OVC021 M08/M10 A2980 RMK AO2 P0000 FZRANO $
PARS 160556Z AUTO 08004KT 1 1/2SM -SN BR BKN014 OVC020 M09/M10 A2980 RMK AO2 SLP096 P0003 60004 T10891100 11083 21106 53003 FZRANO $
PARS 160537Z AUTO 07004KT 1 1/2SM -SN BR BKN010 OVC016 M09/M10 A2980 RMK AO2 CIG 008V012 P0003 FZRANO $
PARS 160519Z AUTO VRB03KT 1SM -SN BR BKN010 OVC015 M09/M10 A2980 RMK AO2 CIG 008V014 P0001 FZRANO RVRNO $
PARS 160515Z AUTO 00000KT 1SM -SN BR BKN008 OVC015 M09/M10 A2980 RMK AO2 P0001 FZRANO RVRNO $
PARS 160456Z AUTO 05004KT 1 3/4SM -SN BR OVC013 M09/M11 A2979 RMK AO2 SLP093 P0001 T10891106 FZRANO $
PARS 160442Z AUTO VRB03KT 1 1/2SM -SN BR OVC013 M09/M11 A2979 RMK AO2 P0001 FZRANO $
PARS 160414Z AUTO 05004KT 2SM -SN BR OVC017 M09/M11 A2979 RMK AO2 P0001 FZRANO $
PARS 160356Z AUTO VRB06KT 1 1/2SM -SN BR OVC017 M09/M11 A2979 RMK AO2 SLP094 P0000 T10891106 FZRANO $
PARS 160349Z AUTO VRB05KT 1 1/4SM -SN BR OVC017 M09/M11 A2979 RMK AO2 P0000 FZRANO $
PARS 160339Z AUTO VRB06KT 1SM -SN BR OVC017 M09/M11 A2979 RMK AO2 P0000 FZRANO RVRNO $
PARS 160328Z AUTO VRB04KT 1 3/4SM -SN BR OVC017 M09/M11 A2980 RMK AO2 P0000 FZRANO $
PARS 160304Z AUTO 07010G14KT 3SM -SN BR FEW006 OVC017 M09/M11 A2979 RMK AO2 P0000 FZRANO $
PARS 160256Z AUTO 06005KT 1 1/4SM -SN BR SCT006 OVC017 M09/M11 A2979 RMK AO2 SLP093 P0000 60000 T10941111 58014 FZRANO $
PARS 160252Z AUTO 06007KT 3/4SM -SN BR BKN006 OVC017 M09/M11 A2979 RMK AO2 P0000 FZRANO RVRNO $
PARS 160208Z AUTO 08005KT 1/4SM +SN FZFG OVC006 M10/M12 A2981 RMK AO2 CIG 006V009 P0000 FZRANO RVRNO $
PARS 160156Z AUTO 06006KT 1/2SM SN FZFG OVC008 M10/M12 A2981 RMK AO2 SNB08 SLP099 P0000 T11001117 FZRANO RVRNO $
PARS 160141Z AUTO 08008KT 1/2SM SN FZFG OVC008 M10/M12 A2981 RMK AO2 SNB08 CIG 007V014 P0000 FZRANO RVRNO $
PARS 160129Z AUTO 07009KT 3/4SM -SN BR BKN008 BKN015 OVC021 M11/M13 A2982 RMK AO2 SNB08 CIG 008V013 P0000 FZRANO RVRNO $
PARS 160126Z AUTO 08006KT 3/4SM -SN BR BKN011 BKN015 OVC032 M11/M13 A2982 RMK AO2 SNB08 CIG 008V013 P0000 FZRANO RVRNO $
PARS 160118Z AUTO 08007KT 1SM -SN BKN013 BKN021 OVC042 M11/M13 A2982 RMK AO2 SNB08 P0000 FZRANO RVRNO $
PARS 160113Z AUTO 07007KT 2 1/2SM -SN BKN017 BKN032 OVC055 M11/M13 A2983 RMK AO2 VIS 1V5 SNB08 CIG 013V024 P0000 FZRANO $
PARS 160056Z AUTO 08008KT 10SM SCT032 BKN042 OVC090 M11/M13 A2983 RMK AO2 SLP106 T11061133 FZRANO $
PARS 152356Z AUTO 06009G14KT 10SM OVC100 M11/M13 A2983 RMK AO2 SLP107 60000 T11061133 11106 21133 56022 FZRANO $
PARS 152256Z AUTO 06006KT 10SM OVC100 M11/M13 A2985 RMK AO2 SNB29E39 SLP114 P0000 T11061133 FZRANO $
PARS 152156Z AUTO 07010G18KT 10SM OVC100 M11/M13 A2986 RMK AO2 SNE09B31E42 SLP115 P0000 T11111133 FZRANO $
PARS 152056Z AUTO VRB06KT 9SM -SN FEW120 M12/M14 A2990 RMK AO2 SNB14 SLP129 P0000 60000 T11221144 58020 FZRANO $
PARS 151956Z AUTO 06011G16KT 10SM CLR M13/M15 A2992 RMK AO2 SNE34 SLP137 P0000 T11331150 FZRANO $
PARS 151911Z AUTO 07007KT 9SM -SN SCT028 M13/M14 A2995 RMK AO2 P0000 FZRANO $
PARS 151856Z AUTO 05007KT 9SM -SN BKN028 M13/M14 A2994 RMK AO2 SLP145 P0000 T11281144 FZRANO $
PARS 151830Z AUTO 06008KT 8SM -SN SCT010 OVC028 M13/M14 A2996 RMK AO2 P0000 FZRANO $
PARS 151752Z AUTO 05009G15KT 3SM -SN BR OVC006 M13/M14 A2996 RMK AO2 SLP149 P0000 60000 T11281144 11117 21128 56016 FZRANO $
PARS 151656Z AUTO 06007KT 1 3/4SM -SN BR OVC008 M13/M14 A2997 RMK AO2 SLP154 P0000 T11281144 FZRANO $
PARS 151654Z AUTO VRB04KT 1 3/4SM -SN BR OVC008 M13/M14 A2997 RMK AO2 P0000 FZRANO $
PARS 151645Z AUTO 06004KT 2SM -SN BR OVC008 M13/M14 A2998 RMK AO2 P0000 FZRANO $
PARS 151556Z AUTO 06006KT 5SM -SN BR OVC008 M13/M14 A3001 RMK AO2 SLP165 P0000 T11281139 FZRANO $
PARS 151456Z AUTO 07004KT 4SM -SN BR OVC008 M13/M14 A3002 RMK AO2 SLP171 P0000 60000 T11281139 57010 FZRANO $
PARS 151356Z AUTO 06006KT 3SM -SN BR OVC006 M13/M14 A3004 RMK AO2 SLP176 P0000 T11281144 FZRANO $
PARS 151354Z AUTO 06007KT 2 1/2SM -SN BR OVC006 M13/M14 A3004 RMK AO2 P0000 FZRANO $
PARS 151315Z AUTO 07007KT 3SM -SN BR OVC006 M12/M14 A3005 RMK AO2 P0000 FZRANO $
PARS 151304Z AUTO 08004KT 2 1/2SM -SN BR OVC006 M12/M14 A3005 RMK AO2 P0000 FZRANO $
PARS 151256Z AUTO 06003KT 1 3/4SM -SN BR OVC006 M12/M14 A3005 RMK AO2 SLP182 P0000 T11221139 FZRANO $
PARS 151243Z AUTO 07004KT 1 3/4SM -SN BR OVC006 M12/M14 A3006 RMK AO2 P0000 FZRANO $
PARS 151056Z AUTO 06005KT 9SM -SN OVC008 M12/M13 A3006 RMK AO2 SNB24 SLP183 P0000 T11221133 FZRANO $
PARS 150956Z AUTO 09004KT 10SM OVC008 M12/M13 A3005 RMK AO2 SLP181 T11171133 FZRANO $
PARS 150856Z AUTO 07006KT 10SM OVC008 M12/M13 A3002 RMK AO2 SLP171 60000 T11171133 53010 FZRANO $
PARS 150836Z AUTO 08004KT 10SM OVC008 M12/M13 A3002 RMK AO2 FZRANO $
PARS 150756Z AUTO 08005KT 10SM OVC010 M12/M13 A3001 RMK AO2 SNE19 SLP166 P0000 T11171128 411061200 FZRANO $
PARS 150656Z AUTO 08004KT 8SM -SN OVC010 M11/M12 A3000 RMK AO2 SLP165 P0000 T11111122 FZRANO $
PARS 150456Z AUTO 06006KT 7SM -SN OVC012 M11/M13 A3000 RMK AO2 SLP162 P0000 T11111128 FZRANO $
PARS 150404Z AUTO 04004KT 6SM -SN BR OVC014 M11/M13 A2999 RMK AO2 P0000 FZRANO $
PARS 150356Z AUTO 07003KT 5SM -SN BR OVC016 M11/M13 A2998 RMK AO2 SLP158 P0000 T11111133 FZRANO $
PARS 150334Z AUTO 06007KT 6SM -SN BR BKN020 OVC027 M11/M13 A2998 RMK AO2 P0000 FZRANO $
PARS 150326Z AUTO 07007KT 2SM -SN BR BKN022 OVC035 M11/M13 A2998 RMK AO2 P0000 FZRANO $
PARS 150256Z AUTO 07004KT 1SM -SN BR BKN019 BKN026 OVC035 M11/M13 A2998 RMK AO2 SLP157 P0000 60000 T11111133 55006 FZRANO RVRNO $
PARS 150240Z AUTO VRB05KT 1SM -SN BR OVC017 M11/M13 A2998 RMK AO2 P0000 FZRANO RVRNO $
PARS 150225Z AUTO 08005KT 1 1/4SM -SN BR FEW010 OVC017 M11/M13 A2997 RMK AO2 P0000 FZRANO $
PARS 150223Z AUTO VRB06KT 1SM -SN BR BKN013 OVC019 M11/M13 A2997 RMK AO2 P0000 FZRANO RVRNO $
PARS 150217Z AUTO VRB04KT 3/4SM -SN BR FEW010 OVC015 M11/M13 A2998 RMK AO2 P0000 FZRANO RVRNO $
PARS 150210Z AUTO VRB04KT 3/4SM -SN BR OVC012 M11/M13 A2998 RMK AO2 P0000 FZRANO RVRNO $
PARS 150204Z AUTO 07005KT 1/2SM SN OVC012 M11/M14 A2997 RMK AO2 P0000 FZRANO RVRNO $
PARS 150156Z AUTO 06007KT 1SM -SN SCT008 OVC015 M11/M14 A2997 RMK AO2 SLP155 P0000 T11111139 FZRANO RVRNO $
PARS 150147Z AUTO 07008KT 1/2SM SN SCT008 BKN015 OVC035 M11/M14 A2997 RMK AO2 P0000 FZRANO RVRNO $
PARS 150142Z AUTO 07007KT 3/4SM -SN FEW008 BKN014 OVC033 M11/M14 A2997 RMK AO2 P0000 FZRANO RVRNO $
PARS 150139Z AUTO 07007KT 1SM -SN SCT014 BKN020 OVC043 M11/M14 A2997 RMK AO2 P0000 FZRANO RVRNO $
PARS 150135Z AUTO 08008KT 030V100 2SM -SN SCT016 BKN022 OVC043 M11/M14 A2997 RMK AO2 P0000 FZRANO $
PARS 150056Z AUTO VRB04KT 7SM -SN SCT018 OVC032 M11/M15 A3000 RMK AO2 SLP163 P0000 T11061150 FZRANO $
PARS 150049Z AUTO VRB04KT 3SM -SN SCT018 SCT024 OVC034 M11/M15 A3000 RMK AO2 P0000 FZRANO $
PARS 150041Z AUTO 08005KT 2SM -SN BKN018 BKN025 OVC032 M11/M16 A3000 RMK AO2 P0000 FZRANO $
PARS 150015Z AUTO 08007KT 5SM -SN BKN025 OVC034 M11/M16 A3000 RMK AO2 P0000 FZRANO $
PARS 142356Z AUTO 06007KT 9SM -SN BKN035 OVC045 M11/M16 A3000 RMK AO2 SNB27 SLP163 P0000 60000 T11111156 11111 21150 58027 FZRANO $